sensor_id;sensor_type;location;lat;lon;timestamp;pressure;altitude;pressure_sealevel;temperature;humidity
64368;BME280;50692;53.314;-6.300;2023-03-13T00:00:53;97883.47;;;13.03;98.61
64368;BME280;50692;53.314;-6.300;2023-03-13T00:03:39;97871.88;;;12.95;98.54
64368;BME280;50692;53.314;-6.300;2023-03-13T00:06:29;97902.22;;;13.09;97.47
64368;BME280;50692;53.314;-6.300;2023-03-13T00:09:16;97874.53;;;13.12;97.79
64368;BME280;50692;53.314;-6.300;2023-03-13T00:12:02;97861.94;;;13.06;99.38
64368;BME280;50692;53.314;-6.300;2023-03-13T00:14:48;97837.75;;;12.92;100.00
64368;BME280;50692;53.314;-6.300;2023-03-13T00:17:34;97812.25;;;12.83;100.00
64368;BME280;50692;53.314;-6.300;2023-03-13T00:20:20;97808.09;;;12.72;100.00
64368;BME280;50692;53.314;-6.300;2023-03-13T00:23:06;97811.28;;;12.68;100.00
64368;BME280;50692;53.314;-6.300;2023-03-13T00:25:59;97802.47;;;12.67;100.00
64368;BME280;50692;53.314;-6.300;2023-03-13T00:28:46;97811.75;;;12.63;100.00
64368;BME280;50692;53.314;-6.300;2023-03-13T00:31:32;97771.00;;;12.56;100.00
64368;BME280;50692;53.314;-6.300;2023-03-13T00:34:18;97784.75;;;12.60;100.00
64368;BME280;50692;53.314;-6.300;2023-03-13T00:37:04;97777.13;;;12.57;100.00
64368;BME280;50692;53.314;-6.300;2023-03-13T00:39:49;97777.13;;;12.57;100.00
64368;BME280;50692;53.314;-6.300;2023-03-13T00:42:35;97771.34;;;12.53;100.00
64368;BME280;50692;53.314;-6.300;2023-03-13T00:45:21;97772.84;;;12.47;100.00
64368;BME280;50692;53.314;-6.300;2023-03-13T00:48:07;97755.13;;;12.48;100.00
64368;BME280;50692;53.314;-6.300;2023-03-13T00:50:53;97748.31;;;12.45;100.00
64368;BME280;50692;53.314;-6.300;2023-03-13T00:53:38;97727.47;;;12.26;100.00
64368;BME280;50692;53.314;-6.300;2023-03-13T00:56:25;97735.75;;;12.31;100.00
64368;BME280;50692;53.314;-6.300;2023-03-13T00:59:11;97740.72;;;12.34;100.00
64368;BME280;50692;53.314;-6.300;2023-03-13T01:01:58;97732.13;;;12.32;100.00
64368;BME280;50692;53.314;-6.300;2023-03-13T01:04:44;97707.09;;;12.35;100.00
64368;BME280;50692;53.314;-6.300;2023-03-13T01:07:29;97731.75;;;12.35;100.00
64368;BME280;50692;53.314;-6.300;2023-03-13T01:10:15;97731.44;;;12.38;100.00
64368;BME280;50692;53.314;-6.300;2023-03-13T01:13:01;97689.88;;;12.39;100.00
64368;BME280;50692;53.314;-6.300;2023-03-13T01:15:49;97678.47;;;12.38;100.00
64368;BME280;50692;53.314;-6.300;2023-03-13T01:18:36;97673.34;;;12.37;100.00
64368;BME280;50692;53.314;-6.300;2023-03-13T01:21:23;97711.91;;;12.31;100.00
64368;BME280;50692;53.314;-6.300;2023-03-13T01:24:09;97681.13;;;12.38;100.00
64368;BME280;50692;53.314;-6.300;2023-03-13T01:26:55;97689.06;;;12.38;100.00
64368;BME280;50692;53.314;-6.300;2023-03-13T01:29:41;97676.81;;;12.37;100.00
64368;BME280;50692;53.314;-6.300;2023-03-13T01:32:27;97676.66;;;12.39;100.00
64368;BME280;50692;53.314;-6.300;2023-03-13T01:35:13;97696.69;;;12.41;100.00
64368;BME280;50692;53.314;-6.300;2023-03-13T01:37:59;97671.50;;;12.45;100.00
64368;BME280;50692;53.314;-6.300;2023-03-13T01:40:47;97672.69;;;12.51;100.00
64368;BME280;50692;53.314;-6.300;2023-03-13T01:43:35;97666.22;;;12.54;100.00
64368;BME280;50692;53.314;-6.300;2023-03-13T01:46:26;97648.31;;;12.56;100.00
64368;BME280;50692;53.314;-6.300;2023-03-13T01:49:17;97644.06;;;12.46;100.00
64368;BME280;50692;53.314;-6.300;2023-03-13T01:52:06;97626.31;;;12.55;100.00
64368;BME280;50692;53.314;-6.300;2023-03-13T01:55:02;97632.13;;;12.51;100.00
64368;BME280;50692;53.314;-6.300;2023-03-13T01:57:51;97626.97;;;12.49;100.00
64368;BME280;50692;53.314;-6.300;2023-03-13T02:00:40;97633.28;;;12.48;100.00
64368;BME280;50692;53.314;-6.300;2023-03-13T02:03:27;97632.78;;;12.44;100.00
64368;BME280;50692;53.314;-6.300;2023-03-13T02:06:13;97624.81;;;12.53;100.00
64368;BME280;50692;53.314;-6.300;2023-03-13T02:09:05;97617.88;;;12.52;100.00
64368;BME280;50692;53.314;-6.300;2023-03-13T02:12:14;97616.88;;;12.53;100.00
64368;BME280;50692;53.314;-6.300;2023-03-13T02:15:09;97603.28;;;12.56;100.00
64368;BME280;50692;53.314;-6.300;2023-03-13T02:17:56;97577.66;;;12.48;100.00
64368;BME280;50692;53.314;-6.300;2023-03-13T02:20:42;97595.84;;;12.51;100.00
64368;BME280;50692;53.314;-6.300;2023-03-13T02:23:34;97587.91;;;12.51;100.00
64368;BME280;50692;53.314;-6.300;2023-03-13T02:26:23;97594.69;;;12.45;100.00
64368;BME280;50692;53.314;-6.300;2023-03-13T02:29:09;97612.59;;;12.43;99.52
64368;BME280;50692;53.314;-6.300;2023-03-13T02:32:03;97609.78;;;12.45;99.14
64368;BME280;50692;53.314;-6.300;2023-03-13T02:34:51;97591.88;;;12.55;98.27
64368;BME280;50692;53.314;-6.300;2023-03-13T02:37:44;97578.09;;;12.60;97.16
64368;BME280;50692;53.314;-6.300;2023-03-13T02:40:41;97568.19;;;12.62;96.76
64368;BME280;50692;53.314;-6.300;2023-03-13T02:43:30;97554.44;;;12.58;95.79
64368;BME280;50692;53.314;-6.300;2023-03-13T02:46:19;97550.16;;;12.57;96.41
64368;BME280;50692;53.314;-6.300;2023-03-13T02:49:26;97565.88;;;12.59;96.65
64368;BME280;50692;53.314;-6.300;2023-03-13T02:52:23;97550.50;;;12.54;96.18
64368;BME280;50692;53.314;-6.300;2023-03-13T02:55:23;97536.44;;;12.54;95.54
64368;BME280;50692;53.314;-6.300;2023-03-13T02:58:10;97521.69;;;12.51;95.27
64368;BME280;50692;53.314;-6.300;2023-03-13T03:00:56;97557.28;;;12.48;95.09
64368;BME280;50692;53.314;-6.300;2023-03-13T03:03:42;97533.94;;;12.52;94.58
64368;BME280;50692;53.314;-6.300;2023-03-13T03:06:28;97507.63;;;12.51;94.91
64368;BME280;50692;53.314;-6.300;2023-03-13T03:09:14;97501.50;;;12.42;95.27
64368;BME280;50692;53.314;-6.300;2023-03-13T03:12:00;97508.00;;;12.39;95.53
64368;BME280;50692;53.314;-6.300;2023-03-13T03:14:46;97514.47;;;12.37;95.71
64368;BME280;50692;53.314;-6.300;2023-03-13T03:17:31;97513.97;;;12.33;95.18
64368;BME280;50692;53.314;-6.300;2023-03-13T03:20:17;97513.13;;;12.41;94.95
64368;BME280;50692;53.314;-6.300;2023-03-13T03:23:03;97506.16;;;12.40;94.66
64368;BME280;50692;53.314;-6.300;2023-03-13T03:25:49;97510.47;;;12.41;94.77
64368;BME280;50692;53.314;-6.300;2023-03-13T03:28:35;97511.94;;;12.43;95.02
64368;BME280;50692;53.314;-6.300;2023-03-13T03:31:20;97496.56;;;12.39;94.52
64368;BME280;50692;53.314;-6.300;2023-03-13T03:34:06;97509.97;;;12.37;93.96
64368;BME280;50692;53.314;-6.300;2023-03-13T03:36:52;97461.75;;;12.11;94.28
64368;BME280;50692;53.314;-6.300;2023-03-13T03:39:38;97515.38;;;12.05;95.46
64368;BME280;50692;53.314;-6.300;2023-03-13T03:42:24;97502.00;;;11.90;95.84
64368;BME280;50692;53.314;-6.300;2023-03-13T03:45:10;97485.59;;;11.70;96.78
64368;BME280;50692;53.314;-6.300;2023-03-13T03:47:55;97481.31;;;11.52;95.43
64368;BME280;50692;53.314;-6.300;2023-03-13T03:50:44;97524.28;;;11.38;93.70
64368;BME280;50692;53.314;-6.300;2023-03-13T03:53:30;97476.88;;;11.37;92.27
64368;BME280;50692;53.314;-6.300;2023-03-13T03:56:16;97459.19;;;11.37;91.56
64368;BME280;50692;53.314;-6.300;2023-03-13T03:59:02;97459.00;;;11.39;91.31
64368;BME280;50692;53.314;-6.300;2023-03-13T04:01:48;97465.78;;;11.33;92.68
64368;BME280;50692;53.314;-6.300;2023-03-13T04:04:34;97491.38;;;11.08;94.13
64368;BME280;50692;53.314;-6.300;2023-03-13T04:07:20;97461.81;;;10.96;95.35
64368;BME280;50692;53.314;-6.300;2023-03-13T04:10:06;97462.59;;;10.89;95.43
64368;BME280;50692;53.314;-6.300;2023-03-13T04:12:52;97484.41;;;10.83;93.27
64368;BME280;50692;53.314;-6.300;2023-03-13T04:15:38;97458.00;;;10.83;92.99
64368;BME280;50692;53.314;-6.300;2023-03-13T04:18:24;97438.00;;;10.80;93.21
64368;BME280;50692;53.314;-6.300;2023-03-13T04:21:10;97468.69;;;10.73;91.82
64368;BME280;50692;53.314;-6.300;2023-03-13T04:23:56;97424.59;;;10.73;91.26
64368;BME280;50692;53.314;-6.300;2023-03-13T04:26:41;97417.19;;;10.69;91.44
64368;BME280;50692;53.314;-6.300;2023-03-13T04:29:28;97390.78;;;10.69;91.19
64368;BME280;50692;53.314;-6.300;2023-03-13T04:32:14;97416.50;;;10.67;89.66
64368;BME280;50692;53.314;-6.300;2023-03-13T04:34:59;97427.38;;;10.64;89.99
64368;BME280;50692;53.314;-6.300;2023-03-13T04:37:46;97442.91;;;10.67;90.49
64368;BME280;50692;53.314;-6.300;2023-03-13T04:40:32;97420.13;;;10.66;91.45
64368;BME280;50692;53.314;-6.300;2023-03-13T04:43:18;97437.28;;;10.53;93.04
64368;BME280;50692;53.314;-6.300;2023-03-13T04:46:04;97436.59;;;10.43;94.49
64368;BME280;50692;53.314;-6.300;2023-03-13T04:48:50;97456.53;;;10.38;95.49
64368;BME280;50692;53.314;-6.300;2023-03-13T04:51:36;97452.06;;;10.38;96.22
64368;BME280;50692;53.314;-6.300;2023-03-13T04:54:22;97444.44;;;10.27;97.25
64368;BME280;50692;53.314;-6.300;2023-03-13T04:57:07;97461.28;;;10.34;98.06
64368;BME280;50692;53.314;-6.300;2023-03-13T04:59:53;97422.88;;;10.31;98.95
64368;BME280;50692;53.314;-6.300;2023-03-13T05:02:39;97417.72;;;10.30;100.00
64368;BME280;50692;53.314;-6.300;2023-03-13T05:05:25;97406.53;;;10.28;100.00
64368;BME280;50692;53.314;-6.300;2023-03-13T05:08:11;97402.56;;;10.32;100.00
64368;BME280;50692;53.314;-6.300;2023-03-13T05:10:56;97399.63;;;10.35;100.00
64368;BME280;50692;53.314;-6.300;2023-03-13T05:13:42;97383.59;;;10.37;100.00
64368;BME280;50692;53.314;-6.300;2023-03-13T05:16:28;97382.44;;;10.31;100.00
64368;BME280;50692;53.314;-6.300;2023-03-13T05:19:14;97380.16;;;10.36;100.00
64368;BME280;50692;53.314;-6.300;2023-03-13T05:21:59;97373.56;;;10.40;100.00
64368;BME280;50692;53.314;-6.300;2023-03-13T05:24:45;97360.69;;;10.37;100.00
64368;BME280;50692;53.314;-6.300;2023-03-13T05:27:31;97363.00;;;10.40;100.00
64368;BME280;50692;53.314;-6.300;2023-03-13T05:30:17;97365.63;;;10.48;100.00
64368;BME280;50692;53.314;-6.300;2023-03-13T05:33:03;97360.88;;;10.52;100.00
64368;BME280;50692;53.314;-6.300;2023-03-13T05:35:49;97367.66;;;10.63;100.00
64368;BME280;50692;53.314;-6.300;2023-03-13T05:38:35;97369.78;;;10.67;99.85
64368;BME280;50692;53.314;-6.300;2023-03-13T05:41:21;97368.00;;;10.68;98.93
64368;BME280;50692;53.314;-6.300;2023-03-13T05:44:06;97367.66;;;10.71;97.73
64368;BME280;50692;53.314;-6.300;2023-03-13T05:46:52;97373.78;;;10.79;96.23
64368;BME280;50692;53.314;-6.300;2023-03-13T05:49:38;97370.97;;;10.81;94.88
64368;BME280;50692;53.314;-6.300;2023-03-13T05:52:24;97384.66;;;10.85;94.83
64368;BME280;50692;53.314;-6.300;2023-03-13T05:55:09;97352.66;;;10.79;94.53
64368;BME280;50692;53.314;-6.300;2023-03-13T05:57:55;97361.91;;;10.75;94.90
64368;BME280;50692;53.314;-6.300;2023-03-13T06:00:41;97354.78;;;10.76;96.08
64368;BME280;50692;53.314;-6.300;2023-03-13T06:03:28;97362.03;;;10.66;97.19
64368;BME280;50692;53.314;-6.300;2023-03-13T06:06:14;97371.28;;;10.62;98.16
64368;BME280;50692;53.314;-6.300;2023-03-13T06:09:00;97368.63;;;10.53;99.90
64368;BME280;50692;53.314;-6.300;2023-03-13T06:11:45;97360.69;;;10.45;100.00
64368;BME280;50692;53.314;-6.300;2023-03-13T06:14:31;97346.84;;;10.35;100.00
64368;BME280;50692;53.314;-6.300;2023-03-13T06:17:17;97360.03;;;10.35;100.00
64368;BME280;50692;53.314;-6.300;2023-03-13T06:20:03;97367.75;;;10.28;100.00
64368;BME280;50692;53.314;-6.300;2023-03-13T06:22:50;97361.31;;;10.31;100.00
64368;BME280;50692;53.314;-6.300;2023-03-13T06:25:36;97365.25;;;10.27;100.00
64368;BME280;50692;53.314;-6.300;2023-03-13T06:28:21;97353.75;;;10.28;100.00
64368;BME280;50692;53.314;-6.300;2023-03-13T06:31:07;97364.44;;;10.35;100.00
64368;BME280;50692;53.314;-6.300;2023-03-13T06:33:54;97353.25;;;10.41;100.00
64368;BME280;50692;53.314;-6.300;2023-03-13T06:36:39;97355.56;;;10.44;100.00
64368;BME280;50692;53.314;-6.300;2023-03-13T06:39:25;97348.16;;;10.47;100.00
64368;BME280;50692;53.314;-6.300;2023-03-13T06:42:11;97351.44;;;10.49;100.00
64368;BME280;50692;53.314;-6.300;2023-03-13T06:44:57;97350.47;;;10.50;100.00
64368;BME280;50692;53.314;-6.300;2023-03-13T06:47:43;97344.53;;;10.48;100.00
64368;BME280;50692;53.314;-6.300;2023-03-13T06:50:29;97355.44;;;10.53;100.00
64368;BME280;50692;53.314;-6.300;2023-03-13T06:53:17;97351.81;;;10.54;100.00
64368;BME280;50692;53.314;-6.300;2023-03-13T06:56:04;97358.22;;;10.52;100.00
64368;BME280;50692;53.314;-6.300;2023-03-13T06:58:50;97359.53;;;10.56;100.00
64368;BME280;50692;53.314;-6.300;2023-03-13T07:01:35;97346.84;;;10.60;100.00
64368;BME280;50692;53.314;-6.300;2023-03-13T07:04:21;97341.06;;;10.56;100.00
64368;BME280;50692;53.314;-6.300;2023-03-13T07:07:07;97335.47;;;10.51;100.00
64368;BME280;50692;53.314;-6.300;2023-03-13T07:09:53;97337.44;;;10.57;100.00
64368;BME280;50692;53.314;-6.300;2023-03-13T07:12:39;97342.25;;;10.53;100.00
64368;BME280;50692;53.314;-6.300;2023-03-13T07:15:25;97338.28;;;10.57;100.00
64368;BME280;50692;53.314;-6.300;2023-03-13T07:18:11;97352.94;;;10.60;100.00
64368;BME280;50692;53.314;-6.300;2023-03-13T07:20:59;97354.44;;;10.63;100.00
64368;BME280;50692;53.314;-6.300;2023-03-13T07:23:45;97358.72;;;10.64;100.00
64368;BME280;50692;53.314;-6.300;2023-03-13T07:26:31;97339.75;;;10.60;100.00
64368;BME280;50692;53.314;-6.300;2023-03-13T07:29:17;97364.34;;;10.61;100.00
64368;BME280;50692;53.314;-6.300;2023-03-13T07:32:03;97367.66;;;10.63;100.00
64368;BME280;50692;53.314;-6.300;2023-03-13T07:34:49;97363.19;;;10.63;100.00
64368;BME280;50692;53.314;-6.300;2023-03-13T07:37:35;97363.03;;;10.65;100.00
64368;BME280;50692;53.314;-6.300;2023-03-13T07:40:20;97327.69;;;10.41;100.00
64368;BME280;50692;53.314;-6.300;2023-03-13T07:43:06;97383.16;;;10.74;100.00
64368;BME280;50692;53.314;-6.300;2023-03-13T07:46:03;97388.13;;;10.77;100.00
64368;BME280;50692;53.314;-6.300;2023-03-13T07:48:49;97381.84;;;10.78;100.00
64368;BME280;50692;53.314;-6.300;2023-03-13T07:51:37;97375.91;;;10.84;100.00
64368;BME280;50692;53.314;-6.300;2023-03-13T07:54:22;97379.22;;;10.86;100.00
64368;BME280;50692;53.314;-6.300;2023-03-13T07:57:08;97391.44;;;10.95;100.00
64368;BME280;50692;53.314;-6.300;2023-03-13T07:59:54;97364.19;;;11.03;100.00
64368;BME280;50692;53.314;-6.300;2023-03-13T08:02:40;97368.66;;;11.02;100.00
64368;BME280;50692;53.314;-6.300;2023-03-13T08:05:26;97380.88;;;11.20;100.00
64368;BME280;50692;53.314;-6.300;2023-03-13T08:08:11;97391.25;;;11.46;99.76
64368;BME280;50692;53.314;-6.300;2023-03-13T08:11:11;97379.50;;;11.48;98.53
64368;BME280;50692;53.314;-6.300;2023-03-13T08:13:57;97391.72;;;11.49;97.70
64368;BME280;50692;53.314;-6.300;2023-03-13T08:16:43;97382.66;;;11.44;97.75
64368;BME280;50692;53.314;-6.300;2023-03-13T08:19:29;97379.88;;;11.37;97.88
64368;BME280;50692;53.314;-6.300;2023-03-13T08:22:15;97400.72;;;11.32;97.91
64368;BME280;50692;53.314;-6.300;2023-03-13T08:25:01;97384.34;;;11.28;98.18
64368;BME280;50692;53.314;-6.300;2023-03-13T08:27:47;97380.53;;;11.23;98.18
64368;BME280;50692;53.314;-6.300;2023-03-13T08:30:32;97395.06;;;11.27;98.06
64368;BME280;50692;53.314;-6.300;2023-03-13T08:33:18;97374.25;;;11.24;97.97
64368;BME280;50692;53.314;-6.300;2023-03-13T08:36:15;97392.44;;;11.27;97.64
64368;BME280;50692;53.314;-6.300;2023-03-13T08:39:09;97387.50;;;11.32;97.22
64368;BME280;50692;53.314;-6.300;2023-03-13T08:41:55;97399.19;;;11.38;97.00
64368;BME280;50692;53.314;-6.300;2023-03-13T08:44:41;97369.28;;;11.21;96.49
64368;BME280;50692;53.314;-6.300;2023-03-13T08:47:27;97401.19;;;11.44;97.20
64368;BME280;50692;53.314;-6.300;2023-03-13T08:50:13;97403.81;;;11.44;97.01
64368;BME280;50692;53.314;-6.300;2023-03-13T08:52:58;97399.03;;;11.47;97.05
64368;BME280;50692;53.314;-6.300;2023-03-13T08:55:51;97394.53;;;11.56;97.07
64368;BME280;50692;53.314;-6.300;2023-03-13T08:58:37;97398.97;;;11.64;96.98
64368;BME280;50692;53.314;-6.300;2023-03-13T09:01:25;97409.56;;;11.72;97.43
64368;BME280;50692;53.314;-6.300;2023-03-13T09:04:11;97402.78;;;11.86;96.79
64368;BME280;50692;53.314;-6.300;2023-03-13T09:06:57;97408.00;;;12.02;95.97
64368;BME280;50692;53.314;-6.300;2023-03-13T09:09:43;97412.63;;;12.08;94.81
64368;BME280;50692;53.314;-6.300;2023-03-13T09:12:29;97414.06;;;12.19;94.88
64368;BME280;50692;53.314;-6.300;2023-03-13T09:15:15;97416.38;;;12.22;94.30
64368;BME280;50692;53.314;-6.300;2023-03-13T09:18:01;97408.63;;;12.12;94.55
64368;BME280;50692;53.314;-6.300;2023-03-13T09:20:46;97414.75;;;12.13;94.72
64368;BME280;50692;53.314;-6.300;2023-03-13T09:23:32;97418.69;;;12.17;94.65
64368;BME280;50692;53.314;-6.300;2023-03-13T09:26:19;97415.72;;;12.20;93.62
64368;BME280;50692;53.314;-6.300;2023-03-13T09:29:06;97427.59;;;12.24;93.26
64368;BME280;50692;53.314;-6.300;2023-03-13T09:31:52;97416.19;;;12.23;93.10
64368;BME280;50692;53.314;-6.300;2023-03-13T09:34:38;97419.31;;;12.27;92.01
64368;BME280;50692;53.314;-6.300;2023-03-13T09:37:24;97422.63;;;12.29;91.33
64368;BME280;50692;53.314;-6.300;2023-03-13T09:40:14;97429.75;;;12.29;91.29
64368;BME280;50692;53.314;-6.300;2023-03-13T09:43:01;97435.34;;;12.34;91.03
64368;BME280;50692;53.314;-6.300;2023-03-13T09:45:48;97456.84;;;12.39;90.74
64368;BME280;50692;53.314;-6.300;2023-03-13T09:48:42;97439.91;;;12.48;90.72
64368;BME280;50692;53.314;-6.300;2023-03-13T09:51:32;97425.03;;;12.47;89.88
64368;BME280;50692;53.314;-6.300;2023-03-13T09:54:05;97435.03;;;12.68;89.76
64368;BME280;50692;53.314;-6.300;2023-03-13T09:57:02;97440.28;;;12.76;89.05
64368;BME280;50692;53.314;-6.300;2023-03-13T10:04:52;97449.50;;;12.80;90.37
64368;BME280;50692;53.314;-6.300;2023-03-13T10:07:19;97445.41;;;13.01;90.12
64368;BME280;50692;53.314;-6.300;2023-03-13T10:09:45;97445.69;;;13.06;89.86
64368;BME280;50692;53.314;-6.300;2023-03-13T10:12:20;97448.53;;;13.04;90.32
64368;BME280;50692;53.314;-6.300;2023-03-13T10:15:02;97443.28;;;12.96;90.08
64368;BME280;50692;53.314;-6.300;2023-03-13T10:20:25;97448.63;;;12.57;92.11
64368;BME280;50692;53.314;-6.300;2023-03-13T10:23:00;97452.50;;;12.46;93.08
64368;BME280;50692;53.314;-6.300;2023-03-13T10:25:37;97445.16;;;12.56;93.29
64368;BME280;50692;53.314;-6.300;2023-03-13T10:28:04;97447.81;;;12.56;93.63
64368;BME280;50692;53.314;-6.300;2023-03-13T10:30:31;97451.13;;;12.58;94.25
64368;BME280;50692;53.314;-6.300;2023-03-13T10:33:24;97449.97;;;12.61;94.74
64368;BME280;50692;53.314;-6.300;2023-03-13T10:36:08;97455.03;;;12.70;94.45
64368;BME280;50692;53.314;-6.300;2023-03-13T10:38:45;97456.81;;;12.78;93.08
64368;BME280;50692;53.314;-6.300;2023-03-13T10:41:33;97461.25;;;12.86;92.79
64368;BME280;50692;53.314;-6.300;2023-03-13T10:44:03;97443.41;;;13.03;91.53
64368;BME280;50692;53.314;-6.300;2023-03-13T10:46:31;97457.09;;;13.37;91.12
64368;BME280;50692;53.314;-6.300;2023-03-13T10:49:01;97459.09;;;13.58;88.52
64368;BME280;50692;53.314;-6.300;2023-03-13T10:51:37;97456.34;;;13.66;87.89
64368;BME280;50692;53.314;-6.300;2023-03-13T10:54:23;97456.59;;;13.57;87.32
64368;BME280;50692;53.314;-6.300;2023-03-13T10:56:50;97458.97;;;13.52;87.00
64368;BME280;50692;53.314;-6.300;2023-03-13T10:59:25;97456.88;;;13.47;87.38
64368;BME280;50692;53.314;-6.300;2023-03-13T11:01:53;97464.81;;;13.47;87.13
64368;BME280;50692;53.314;-6.300;2023-03-13T11:04:33;97463.47;;;13.66;87.12
64368;BME280;50692;53.314;-6.300;2023-03-13T11:07:14;97447.78;;;14.53;83.67
64368;BME280;50692;53.314;-6.300;2023-03-13T11:09:40;97435.56;;;14.95;81.91
64368;BME280;50692;53.314;-6.300;2023-03-13T11:12:19;97452.09;;;14.91;78.14
64368;BME280;50692;53.314;-6.300;2023-03-13T11:14:45;97461.06;;;14.53;79.71
64368;BME280;50692;53.314;-6.300;2023-03-13T11:17:23;97465.47;;;14.16;82.01
64368;BME280;50692;53.314;-6.300;2023-03-13T11:23:27;97473.09;;;13.82;84.11
64368;BME280;50692;53.314;-6.300;2023-03-13T11:25:38;97457.41;;;13.57;85.10
64368;BME280;50692;53.314;-6.300;2023-03-13T11:28:39;97479.16;;;13.76;85.80
64368;BME280;50692;53.314;-6.300;2023-03-13T11:31:23;97488.06;;;14.27;84.05
64368;BME280;50692;53.314;-6.300;2023-03-13T11:33:57;97487.16;;;14.79;81.88
64368;BME280;50692;53.314;-6.300;2023-03-13T11:36:59;97498.03;;;15.21;77.79
64368;BME280;50692;53.314;-6.300;2023-03-13T11:42:19;97474.94;;;15.92;75.45
64368;BME280;50692;53.314;-6.300;2023-03-13T11:45:11;97467.91;;;16.54;72.11
64368;BME280;50692;53.314;-6.300;2023-03-13T12:01:19;97471.47;;;17.36;66.41
64368;BME280;50692;53.314;-6.300;2023-03-13T12:03:57;97473.03;;;16.97;68.36
64368;BME280;50692;53.314;-6.300;2023-03-13T12:06:36;97461.75;;;17.01;67.94
64368;BME280;50692;53.314;-6.300;2023-03-13T12:09:32;97461.63;;;17.49;66.46
64368;BME280;50692;53.314;-6.300;2023-03-13T12:12:04;97462.22;;;18.11;64.70
64368;BME280;50692;53.314;-6.300;2023-03-13T12:15:21;97467.53;;;18.31;60.85
64368;BME280;50692;53.314;-6.300;2023-03-13T12:17:26;97474.09;;;18.35;61.81
64368;BME280;50692;53.314;-6.300;2023-03-13T12:20:15;97471.41;;;18.42;60.94
64368;BME280;50692;53.314;-6.300;2023-03-13T12:23:18;97467.00;;;18.67;61.28
64368;BME280;50692;53.314;-6.300;2023-03-13T12:28:38;97475.03;;;18.81;57.93
64368;BME280;50692;53.314;-6.300;2023-03-13T12:31:28;97473.41;;;19.11;58.39
64368;BME280;50692;53.314;-6.300;2023-03-13T12:39:16;97466.94;;;19.57;55.04
64368;BME280;50692;53.314;-6.300;2023-03-13T12:41:59;97474.97;;;19.26;56.04
64368;BME280;50692;53.314;-6.300;2023-03-13T12:44:32;97480.06;;;19.34;56.38
64368;BME280;50692;53.314;-6.300;2023-03-13T12:47:18;97472.44;;;19.06;56.36
64368;BME280;50692;53.314;-6.300;2023-03-13T12:52:48;97471.34;;;18.55;57.56
64368;BME280;50692;53.314;-6.300;2023-03-13T12:55:52;97470.31;;;18.63;57.64
64368;BME280;50692;53.314;-6.300;2023-03-13T12:58:29;97481.81;;;18.77;56.99
64368;BME280;50692;53.314;-6.300;2023-03-13T13:01:04;97480.22;;;19.07;56.56
64368;BME280;50692;53.314;-6.300;2023-03-13T13:03:37;97479.50;;;18.87;56.66
64368;BME280;50692;53.314;-6.300;2023-03-13T13:06:14;97461.19;;;18.19;57.62
64368;BME280;50692;53.314;-6.300;2023-03-13T13:11:44;97478.34;;;19.78;56.19
64368;BME280;50692;53.314;-6.300;2023-03-13T13:16:40;97468.91;;;20.19;52.10
64368;BME280;50692;53.314;-6.300;2023-03-13T13:24:56;97471.09;;;18.05;60.75
64368;BME280;50692;53.314;-6.300;2023-03-13T13:27:45;97481.34;;;17.62;65.31
64368;BME280;50692;53.314;-6.300;2023-03-13T13:32:55;97472.75;;;17.80;66.26
64368;BME280;50692;53.314;-6.300;2023-03-13T13:35:32;97481.56;;;18.20;62.40
64368;BME280;50692;53.314;-6.300;2023-03-13T13:41:00;97502.00;;;17.13;63.62
64368;BME280;50692;53.314;-6.300;2023-03-13T13:43:33;97531.75;;;16.69;66.59
64368;BME280;50692;53.314;-6.300;2023-03-13T13:48:38;97518.22;;;15.73;69.31
64368;BME280;50692;53.314;-6.300;2023-03-13T13:59:22;97529.03;;;14.48;80.10
64368;BME280;50692;53.314;-6.300;2023-03-13T14:07:24;97545.47;;;13.99;85.11
64368;BME280;50692;53.314;-6.300;2023-03-13T14:10:14;97541.31;;;13.81;86.59
64368;BME280;50692;53.314;-6.300;2023-03-13T14:12:44;97550.50;;;13.71;87.73
64368;BME280;50692;53.314;-6.300;2023-03-13T14:15:23;97562.50;;;13.66;87.55
64368;BME280;50692;53.314;-6.300;2023-03-13T14:17:54;97562.25;;;13.53;89.48
64368;BME280;50692;53.314;-6.300;2023-03-13T14:23:04;97562.97;;;13.47;89.21
64368;BME280;50692;53.314;-6.300;2023-03-13T14:25:45;97561.97;;;13.48;89.18
64368;BME280;50692;53.314;-6.300;2023-03-13T14:28:26;97571.22;;;13.52;89.26
64368;BME280;50692;53.314;-6.300;2023-03-13T14:30:55;97582.19;;;13.49;89.28
64368;BME280;50692;53.314;-6.300;2023-03-13T14:33:21;97595.44;;;13.49;89.62
64368;BME280;50692;53.314;-6.300;2023-03-13T14:35:48;97606.25;;;13.48;90.16
64368;BME280;50692;53.314;-6.300;2023-03-13T14:38:24;97611.06;;;13.44;89.92
64368;BME280;50692;53.314;-6.300;2023-03-13T14:40:52;97619.38;;;13.41;89.39
64368;BME280;50692;53.314;-6.300;2023-03-13T14:45:51;97625.06;;;13.21;89.00
64368;BME280;50692;53.314;-6.300;2023-03-13T14:48:21;97641.97;;;13.20;88.24
64368;BME280;50692;53.314;-6.300;2023-03-13T14:50:49;97644.38;;;13.07;87.70
64368;BME280;50692;53.314;-6.300;2023-03-13T14:53:18;97651.06;;;12.87;87.86
64368;BME280;50692;53.314;-6.300;2023-03-13T14:55:44;97658.69;;;12.90;87.88
64368;BME280;50692;53.314;-6.300;2023-03-13T15:00:47;97676.09;;;12.84;87.84
64368;BME280;50692;53.314;-6.300;2023-03-13T15:05:42;97687.22;;;12.71;87.90
64368;BME280;50692;53.314;-6.300;2023-03-13T15:08:20;97704.44;;;12.67;88.23
64368;BME280;50692;53.314;-6.300;2023-03-13T15:10:48;97713.91;;;12.54;87.58
64368;BME280;50692;53.314;-6.300;2023-03-13T15:15:44;97728.13;;;12.36;87.63
64368;BME280;50692;53.314;-6.300;2023-03-13T15:18:17;97747.00;;;12.41;87.61
64368;BME280;50692;53.314;-6.300;2023-03-13T15:20:51;97748.66;;;12.34;87.81
64368;BME280;50692;53.314;-6.300;2023-03-13T15:23:18;97761.91;;;12.34;87.17
64368;BME280;50692;53.314;-6.300;2023-03-13T15:25:44;97765.69;;;12.32;87.16
64368;BME280;50692;53.314;-6.300;2023-03-13T15:28:15;97777.28;;;12.22;86.29
64368;BME280;50692;53.314;-6.300;2023-03-13T15:30:42;97775.59;;;12.13;85.92
64368;BME280;50692;53.314;-6.300;2023-03-13T15:33:13;97769.59;;;11.95;85.23
64368;BME280;50692;53.314;-6.300;2023-03-13T15:35:40;97728.59;;;11.57;85.71